Terminal Aerodrome Forecast
Issued by NWS

Home | Current Version | Previous Version | Text Only | Print | Product List | Glossary On
Versions: 1 2 3 4 5 6 7 8 9 10 11 12
000
FTUS45 KGJT 110541
TAFMTJ
TAF
KMTJ 110541Z 1106/1206 VRB03KT P6SM VCSH OVC070
     FM110700 17007KT P6SM -SHRASN OVC060 WS020/24030KT
     FM111100 23007KT P6SM -SHRASN OVC050
     FM111700 31004KT P6SM VCSH BKN030
     FM111900 29004KT P6SM BKN035
     FM120300 15005KT P6SM FEW070=

USA.gov is the U.S. government's official web portal to all federal, state and local government web resources and services.